Time,TemperatureF,DewpointF,PressureIn,WindDirection,WindDirectionDegrees,WindSpeedMPH,WindSpeedGustMPH,Humidity,HourlyPrecipIn,Conditions,Clouds,dailyrainin,SoftwareType,DateUTC
2013-01-03 00:03:00,30.0,28.0,30.29,NNW,346,0.0,-999.0,92,-99.99,,,-99.99,,2013-01-03 05:03:00,
2013-01-03 00:12:00,30.0,28.0,30.29,NNW,346,0.0,-999.0,92,-99.99,,,-99.99,,2013-01-03 05:12:00,
2013-01-03 00:23:00,30.0,28.0,30.29,NNW,346,0.0,-999.0,92,-99.99,,,-99.99,,2013-01-03 05:23:00,
2013-01-03 00:33:00,30.0,28.0,30.29,NNW,346,0.0,-999.0,92,-99.99,,,-99.99,,2013-01-03 05:33:00,
2013-01-03 00:42:00,30.0,28.0,30.29,NNW,346,0.0,-999.0,92,-99.99,,,-99.99,,2013-01-03 05:42:00,
2013-01-03 00:53:00,31.0,29.0,30.28,NNW,346,0.0,-999.0,92,-99.99,,,-99.99,,2013-01-03 05:53:00,
2013-01-03 01:02:00,31.0,29.0,30.28,NNW,346,0.0,-999.0,93,-99.99,,,-99.99,,2013-01-03 06:02:00,
2013-01-03 01:12:00,31.0,29.0,30.28,NNW,346,0.0,-999.0,93,-99.99,,,-99.99,,2013-01-03 06:12:00,
2013-01-03 01:22:00,30.0,28.0,30.29,NNW,346,0.0,-999.0,93,-99.99,,,-99.99,,2013-01-03 06:22:00,
2013-01-03 01:33:00,31.0,29.0,30.28,NNW,346,0.0,-999.0,93,-99.99,,,-99.99,,2013-01-03 06:33:00,
2013-01-03 01:42:00,31.0,29.0,30.28,NNW,346,0.0,-999.0,93,-99.99,,,-99.99,,2013-01-03 06:42:00,
2013-01-03 01:53:00,30.0,28.0,30.28,NNW,346,0.0,-999.0,93,-99.99,,,-99.99,,2013-01-03 06:53:00,
2013-01-03 02:02:00,30.0,28.0,30.28,NNW,346,0.0,-999.0,93,-99.99,,,-99.99,,2013-01-03 07:02:00,
2013-01-03 02:12:00,30.0,28.0,30.28,NNW,346,0.0,-999.0,93,-99.99,,,-99.99,,2013-01-03 07:12:00,
2013-01-03 02:22:00,30.0,28.0,30.29,NNW,346,0.0,-999.0,93,-99.99,,,-99.99,,2013-01-03 07:22:00,
2013-01-03 02:33:00,31.0,29.0,30.29,NNW,346,0.0,-999.0,94,-99.99,,,-99.99,,2013-01-03 07:33:00,
2013-01-03 02:42:00,31.0,29.0,30.29,NNW,346,0.0,-999.0,94,-99.99,,,-99.99,,2013-01-03 07:42:00,
2013-01-03 02:53:00,30.0,28.0,30.29,NNW,346,0.0,-999.0,94,-99.99,,,-99.99,,2013-01-03 07:53:00,
2013-01-03 03:02:00,30.0,28.0,30.29,NNE,14,0.0,-999.0,94,-99.99,,,-99.99,,2013-01-03 08:02:00,
2013-01-03 03:12:00,30.0,28.0,30.29,NNE,14,0.0,-999.0,94,-99.99,,,-99.99,,2013-01-03 08:12:00,
2013-01-03 03:22:00,30.0,29.0,30.29,ENE,61,0.0,-999.0,95,-99.99,,,-99.99,,2013-01-03 08:22:00,
2013-01-03 03:33:00,30.0,29.0,30.29,ENE,61,0.0,-999.0,95,-99.99,,,-99.99,,2013-01-03 08:33:00,
2013-01-03 03:43:00,30.0,29.0,30.29,ENE,61,0.0,-999.0,95,-99.99,,,-99.99,,2013-01-03 08:43:00,
2013-01-03 03:53:00,30.0,29.0,30.29,ENE,61,0.0,-999.0,95,-99.99,,,-99.99,,2013-01-03 08:53:00,
2013-01-03 04:03:00,30.0,29.0,30.29,ENE,61,0.0,-999.0,95,-99.99,,,-99.99,,2013-01-03 09:03:00,
2013-01-03 04:12:00,30.0,29.0,30.29,ENE,61,0.0,-999.0,95,-99.99,,,-99.99,,2013-01-03 09:12:00,
2013-01-03 04:22:00,30.0,29.0,30.27,East,85,1.0,-999.0,95,-99.99,,,-99.99,,2013-01-03 09:22:00,
2013-01-03 04:33:00,30.0,29.0,30.28,East,95,1.0,-999.0,95,-99.99,,,-99.99,,2013-01-03 09:33:00,
2013-01-03 04:43:00,30.0,29.0,30.28,East,95,1.0,-999.0,95,-99.99,,,-99.99,,2013-01-03 09:43:00,
2013-01-03 04:53:00,30.0,29.0,30.28,East,95,0.0,-999.0,95,-99.99,,,-99.99,,2013-01-03 09:53:00,
2013-01-03 05:02:00,30.0,29.0,30.28,East,95,0.0,-999.0,95,-99.99,,,-99.99,,2013-01-03 10:02:00,
2013-01-03 05:12:00,30.0,29.0,30.28,East,95,0.0,-999.0,95,-99.99,,,-99.99,,2013-01-03 10:12:00,
2013-01-03 05:23:00,30.0,29.0,30.28,East,95,0.0,-999.0,95,-99.99,,,-99.99,,2013-01-03 10:23:00,
2013-01-03 05:33:00,30.0,29.0,30.29,East,95,0.0,-999.0,95,-99.99,,,-99.99,,2013-01-03 10:33:00,
2013-01-03 05:43:00,30.0,29.0,30.29,East,95,0.0,-999.0,95,-99.99,,,-99.99,,2013-01-03 10:43:00,
2013-01-03 05:53:00,30.0,29.0,30.29,SE,128,1.0,-999.0,95,-99.99,,,-99.99,,2013-01-03 10:53:00,
2013-01-03 06:02:00,30.0,29.0,30.30,SE,128,0.0,-999.0,95,-99.99,,,-99.99,,2013-01-03 11:02:00,
2013-01-03 06:12:00,30.0,29.0,30.30,SE,128,0.0,-999.0,95,-99.99,,,-99.99,,2013-01-03 11:12:00,
2013-01-03 06:23:00,30.0,29.0,30.30,SE,128,0.0,-999.0,95,-99.99,,,-99.99,,2013-01-03 11:23:00,
2013-01-03 06:33:00,30.0,29.0,30.30,SE,128,0.0,-999.0,95,-99.99,,,-99.99,,2013-01-03 11:33:00,
2013-01-03 06:43:00,30.0,29.0,30.30,SE,128,0.0,-999.0,95,-99.99,,,-99.99,,2013-01-03 11:43:00,
2013-01-03 06:53:00,30.0,29.0,30.31,SE,128,0.0,-999.0,95,-99.99,,,-99.99,,2013-01-03 11:53:00,
2013-01-03 07:03:00,29.0,28.0,30.32,SE,128,0.0,-999.0,96,-99.99,,,-99.99,,2013-01-03 12:03:00,
2013-01-03 07:12:00,29.0,28.0,30.32,SE,128,0.0,-999.0,96,-99.99,,,-99.99,,2013-01-03 12:12:00,
2013-01-03 07:22:00,29.0,28.0,30.32,SE,128,0.0,-999.0,96,-99.99,,,-99.99,,2013-01-03 12:22:00,
2013-01-03 07:33:00,30.0,29.0,30.33,SE,128,0.0,-999.0,96,-99.99,,,-99.99,,2013-01-03 12:33:00,
2013-01-03 07:42:00,30.0,29.0,30.33,SE,128,0.0,-999.0,96,-99.99,,,-99.99,,2013-01-03 12:42:00,
2013-01-03 07:53:00,30.0,29.0,30.33,SE,128,0.0,-999.0,96,-99.99,,,-99.99,,2013-01-03 12:53:00,
2013-01-03 08:02:00,30.0,29.0,30.33,SE,128,0.0,-999.0,97,-99.99,,,-99.99,,2013-01-03 13:02:00,
2013-01-03 08:13:00,30.0,29.0,30.33,SE,128,0.0,-999.0,97,-99.99,,,-99.99,,2013-01-03 13:13:00,
2013-01-03 08:22:00,30.0,29.0,30.33,SE,128,0.0,-999.0,97,-99.99,,,-99.99,,2013-01-03 13:22:00,
2013-01-03 08:33:00,30.0,29.0,30.33,SE,128,0.0,-999.0,97,-99.99,,,-99.99,,2013-01-03 13:33:00,
2013-01-03 08:42:00,30.0,29.0,30.33,SE,128,0.0,-999.0,97,-99.99,,,-99.99,,2013-01-03 13:42:00,
2013-01-03 08:53:00,30.0,29.0,30.34,ESE,110,0.0,-999.0,97,-99.99,,,-99.99,,2013-01-03 13:53:00,
2013-01-03 09:03:00,30.0,29.0,30.35,North,355,1.0,-999.0,97,-99.99,,,-99.99,,2013-01-03 14:03:00,
2013-01-03 09:12:00,30.0,29.0,30.35,North,355,1.0,-999.0,97,-99.99,,,-99.99,,2013-01-03 14:12:00,
2013-01-03 09:23:00,30.0,29.0,30.35,North,355,1.0,-999.0,97,-99.99,,,-99.99,,2013-01-03 14:23:00,
2013-01-03 09:33:00,31.0,30.0,30.34,NW,309,5.0,-999.0,95,-99.99,,,-99.99,,2013-01-03 14:33:00,
2013-01-03 09:43:00,31.0,30.0,30.34,NW,309,5.0,-999.0,95,-99.99,,,-99.99,,2013-01-03 14:43:00,
2013-01-03 09:53:00,31.0,29.0,30.35,NW,321,5.0,-999.0,94,-99.99,,,-99.99,,2013-01-03 14:53:00,
2013-01-03 10:03:00,31.0,29.0,30.35,North,355,3.0,-999.0,93,-99.99,,,-99.99,,2013-01-03 15:03:00,
2013-01-03 10:12:00,31.0,29.0,30.35,North,355,3.0,-999.0,93,-99.99,,,-99.99,,2013-01-03 15:12:00,
2013-01-03 10:23:00,32.0,30.0,30.36,NNW,338,1.0,-999.0,92,-99.99,,,-99.99,,2013-01-03 15:23:00,
2013-01-03 10:33:00,32.0,30.0,30.36,NNW,337,1.0,-999.0,92,-99.99,,,-99.99,,2013-01-03 15:33:00,
2013-01-03 10:43:00,32.0,30.0,30.36,NNW,337,1.0,-999.0,92,-99.99,,,-99.99,,2013-01-03 15:43:00,
2013-01-03 10:53:00,33.0,31.0,30.35,NNW,337,1.0,-999.0,91,-99.99,,,-99.99,,2013-01-03 15:53:00,
2013-01-03 11:03:00,33.0,30.0,30.35,WNW,293,2.0,-999.0,88,-99.99,,,-99.99,,2013-01-03 16:03:00,
2013-01-03 11:12:00,33.0,30.0,30.35,WNW,293,2.0,-999.0,88,-99.99,,,-99.99,,2013-01-03 16:12:00,
2013-01-03 11:23:00,33.0,30.0,30.35,NW,323,2.0,-999.0,88,-99.99,,,-99.99,,2013-01-03 16:23:00,
2013-01-03 11:33:00,33.0,30.0,30.35,NW,323,4.0,-999.0,87,-99.99,,,-99.99,,2013-01-03 16:33:00,
2013-01-03 11:43:00,33.0,30.0,30.35,NW,323,4.0,-999.0,87,-99.99,,,-99.99,,2013-01-03 16:43:00,
2013-01-03 11:53:00,34.0,31.0,30.34,NE,51,1.0,-999.0,88,-99.99,,,-99.99,,2013-01-03 16:53:00,
2013-01-03 12:03:00,34.0,29.0,30.33,NW,315,5.0,-999.0,82,-99.99,,,-99.99,,2013-01-03 17:03:00,
2013-01-03 12:13:00,34.0,29.0,30.33,NW,315,5.0,-999.0,82,-99.99,,,-99.99,,2013-01-03 17:13:00,
2013-01-03 12:23:00,34.0,29.0,30.33,NNW,327,5.0,-999.0,81,-99.99,,,-99.99,,2013-01-03 17:23:00,
2013-01-03 12:33:00,33.0,28.0,30.33,NNW,327,8.0,-999.0,80,-99.99,,,-99.99,,2013-01-03 17:33:00,
2013-01-03 12:43:00,33.0,28.0,30.33,NNW,327,8.0,-999.0,80,-99.99,,,-99.99,,2013-01-03 17:43:00,
2013-01-03 12:53:00,33.0,28.0,30.33,North,9,6.0,-999.0,80,-99.99,,,-99.99,,2013-01-03 17:53:00,
2013-01-03 13:03:00,34.0,28.0,30.32,NNE,30,7.0,-999.0,78,-99.99,,,-99.99,,2013-01-03 18:03:00,
2013-01-03 13:13:00,34.0,28.0,30.32,NNE,30,7.0,-999.0,78,-99.99,,,-99.99,,2013-01-03 18:13:00,
2013-01-03 13:22:00,34.0,27.0,30.32,West,265,7.0,-999.0,75,-99.99,,,-99.99,,2013-01-03 18:22:00,
2013-01-03 13:33:00,35.0,28.0,30.32,NW,304,7.0,-999.0,75,-99.99,,,-99.99,,2013-01-03 18:33:00,
2013-01-03 13:43:00,35.0,28.0,30.32,NW,304,7.0,-999.0,75,-99.99,,,-99.99,,2013-01-03 18:43:00,
2013-01-03 13:53:00,35.0,27.0,30.31,North,5,10.0,-999.0,72,-99.99,,,-99.99,,2013-01-03 18:53:00,
2013-01-03 14:03:00,36.0,26.0,30.31,North,360,9.0,-999.0,67,-99.99,,,-99.99,,2013-01-03 19:03:00,
2013-01-03 14:12:00,36.0,26.0,30.31,North,360,9.0,-999.0,67,-99.99,,,-99.99,,2013-01-03 19:12:00,
2013-01-03 14:56:00,35.0,26.0,30.31,NNW,327,8.0,-999.0,68,-99.99,,,-99.99,,2013-01-03 19:56:00,
2013-01-03 15:03:00,35.0,25.0,30.32,WNW,292,10.0,-999.0,66,-99.99,,,-99.99,,2013-01-03 20:03:00,
2013-01-03 15:13:00,35.0,25.0,30.32,WNW,292,10.0,-999.0,66,-99.99,,,-99.99,,2013-01-03 20:13:00,
2013-01-03 15:23:00,36.0,26.0,30.33,WNW,299,7.0,-999.0,66,-99.99,,,-99.99,,2013-01-03 20:23:00,
2013-01-03 15:33:00,35.0,25.0,30.33,NW,315,9.0,-999.0,66,-99.99,,,-99.99,,2013-01-03 20:33:00,
2013-01-03 15:42:00,35.0,25.0,30.33,NW,315,9.0,-999.0,66,-99.99,,,-99.99,,2013-01-03 20:42:00,
2013-01-03 15:53:00,34.0,23.0,30.34,WNW,285,9.0,-999.0,64,-99.99,,,-99.99,,2013-01-03 20:53:00,
2013-01-03 16:02:00,35.0,21.0,30.34,NW,320,11.0,-999.0,57,-99.99,,,-99.99,,2013-01-03 21:02:00,
2013-01-03 16:13:00,35.0,21.0,30.34,NW,320,11.0,-999.0,57,-99.99,,,-99.99,,2013-01-03 21:13:00,
2013-01-03 16:23:00,35.0,21.0,30.34,NW,320,11.0,-999.0,57,-99.99,,,-99.99,,2013-01-03 21:23:00,
2013-01-03 16:36:00,35.0,20.0,30.35,West,269,9.0,-999.0,54,-99.99,,,-99.99,,2013-01-03 21:36:00,
2013-01-03 16:49:00,35.0,20.0,30.35,West,269,9.0,-999.0,54,-99.99,,,-99.99,,2013-01-03 21:49:00,
2013-01-03 17:03:00,35.0,20.0,30.36,WNW,302,6.0,-999.0,54,-99.99,,,-99.99,,2013-01-03 22:03:00,
2013-01-03 17:12:00,35.0,20.0,30.36,WNW,302,6.0,-999.0,54,-99.99,,,-99.99,,2013-01-03 22:12:00,
2013-01-03 17:22:00,34.0,20.0,30.37,NW,313,6.0,-999.0,56,-99.99,,,-99.99,,2013-01-03 22:22:00,
2013-01-03 17:33:00,32.0,19.0,30.37,NNW,331,7.0,-999.0,58,-99.99,,,-99.99,,2013-01-03 22:33:00,
2013-01-03 17:42:00,32.0,19.0,30.37,NNW,331,7.0,-999.0,58,-99.99,,,-99.99,,2013-01-03 22:42:00,
2013-01-03 17:53:00,32.0,20.0,30.37,NNW,329,4.0,-999.0,60,-99.99,,,-99.99,,2013-01-03 22:53:00,
2013-01-03 18:03:00,31.0,20.0,30.37,NNW,336,1.0,-999.0,62,-99.99,,,-99.99,,2013-01-03 23:03:00,
2013-01-03 18:12:00,31.0,20.0,30.37,NNW,336,1.0,-999.0,62,-99.99,,,-99.99,,2013-01-03 23:12:00,
2013-01-03 18:23:00,30.0,20.0,30.38,NNW,336,0.0,-999.0,65,-99.99,,,-99.99,,2013-01-03 23:23:00,
2013-01-03 18:33:00,29.0,19.0,30.39,NNW,338,0.0,-999.0,67,-99.99,,,-99.99,,2013-01-03 23:33:00,
2013-01-03 18:43:00,29.0,19.0,30.39,NNW,338,0.0,-999.0,67,-99.99,,,-99.99,,2013-01-03 23:43:00,
2013-01-03 18:53:00,29.0,20.0,30.38,NNW,338,0.0,-999.0,70,-99.99,,,-99.99,,2013-01-03 23:53:00,
2013-01-03 19:03:00,28.0,20.0,30.39,NW,317,1.0,-999.0,72,-99.99,,,-99.99,,2013-01-04 00:03:00,
2013-01-03 19:13:00,28.0,20.0,30.39,NW,317,1.0,-999.0,72,-99.99,,,-99.99,,2013-01-04 00:13:00,
2013-01-03 19:23:00,28.0,20.0,30.39,NW,325,1.0,-999.0,72,-99.99,,,-99.99,,2013-01-04 00:23:00,
2013-01-03 19:32:00,28.0,20.0,30.39,NW,319,3.0,-999.0,73,-99.99,,,-99.99,,2013-01-04 00:32:00,
2013-01-03 19:42:00,28.0,20.0,30.39,NW,319,3.0,-999.0,73,-99.99,,,-99.99,,2013-01-04 00:42:00,
2013-01-03 19:53:00,28.0,20.0,30.39,NW,317,3.0,-999.0,73,-99.99,,,-99.99,,2013-01-04 00:53:00,
2013-01-03 20:02:00,28.0,21.0,30.40,NW,326,5.0,-999.0,75,-99.99,,,-99.99,,2013-01-04 01:02:00,
2013-01-03 20:12:00,28.0,21.0,30.40,NW,326,5.0,-999.0,75,-99.99,,,-99.99,,2013-01-04 01:12:00,
2013-01-03 20:22:00,28.0,21.0,30.40,North,355,5.0,-999.0,75,-99.99,,,-99.99,,2013-01-04 01:22:00,
2013-01-03 20:33:00,29.0,21.0,30.40,NW,316,5.0,-999.0,73,-99.99,,,-99.99,,2013-01-04 01:33:00,
2013-01-03 20:42:00,29.0,21.0,30.40,NW,316,5.0,-999.0,73,-99.99,,,-99.99,,2013-01-04 01:42:00,
2013-01-03 20:53:00,29.0,19.0,30.40,NW,315,9.0,-999.0,66,-99.99,,,-99.99,,2013-01-04 01:53:00,
2013-01-03 21:02:00,30.0,19.0,30.40,NE,42,10.0,-999.0,62,-99.99,,,-99.99,,2013-01-04 02:02:00,
2013-01-03 21:12:00,30.0,19.0,30.40,NE,42,10.0,-999.0,62,-99.99,,,-99.99,,2013-01-04 02:12:00,
2013-01-03 21:22:00,30.0,19.0,30.40,NE,42,10.0,-999.0,62,-99.99,,,-99.99,,2013-01-04 02:22:00,
2013-01-03 21:33:00,30.0,19.0,30.40,NE,42,10.0,-999.0,62,-99.99,,,-99.99,,2013-01-04 02:33:00,
2013-01-03 21:42:00,30.0,19.0,30.40,NE,42,10.0,-999.0,62,-99.99,,,-99.99,,2013-01-04 02:42:00,
2013-01-03 21:53:00,29.0,17.0,30.40,NW,311,10.0,-999.0,60,-99.99,,,-99.99,,2013-01-04 02:53:00,
2013-01-03 22:03:00,29.0,17.0,30.40,NW,306,9.0,-999.0,61,-99.99,,,-99.99,,2013-01-04 03:03:00,
2013-01-03 22:12:00,29.0,17.0,30.40,NW,306,9.0,-999.0,61,-99.99,,,-99.99,,2013-01-04 03:12:00,
2013-01-03 22:22:00,29.0,18.0,30.40,WNW,301,9.0,-999.0,63,-99.99,,,-99.99,,2013-01-04 03:22:00,
2013-01-03 22:32:00,29.0,18.0,30.40,WNW,303,10.0,-999.0,63,-99.99,,,-99.99,,2013-01-04 03:32:00,
2013-01-03 22:42:00,29.0,18.0,30.40,WNW,303,10.0,-999.0,63,-99.99,,,-99.99,,2013-01-04 03:42:00,
2013-01-03 22:53:00,28.0,18.0,30.40,NNW,330,8.0,-999.0,65,-99.99,,,-99.99,,2013-01-04 03:53:00,
2013-01-03 23:02:00,28.0,18.0,30.41,NW,317,9.0,-999.0,66,-99.99,,,-99.99,,2013-01-04 04:02:00,
2013-01-03 23:12:00,28.0,18.0,30.41,NW,317,9.0,-999.0,66,-99.99,,,-99.99,,2013-01-04 04:12:00,
2013-01-03 23:22:00,28.0,19.0,30.40,NNW,337,7.0,-999.0,69,-99.99,,,-99.99,,2013-01-04 04:22:00,
2013-01-03 23:32:00,28.0,20.0,30.40,WNW,300,8.0,-999.0,73,-99.99,,,-99.99,,2013-01-04 04:32:00,
2013-01-03 23:42:00,28.0,20.0,30.40,WNW,300,8.0,-999.0,73,-99.99,,,-99.99,,2013-01-04 04:42:00,
2013-01-03 23:53:00,28.0,20.0,30.40,WNW,300,8.0,-999.0,73,-99.99,,,-99.99,,2013-01-04 04:53:00,